Дата Пункты Температура Давл., мм. Влажн., % Ветер Погодные явления
Воздуха Воды Направл. Скорость
29.08.18 03:00 Одесса 21.0 24.0 756 58 З 1 03 ЧАСА
28.08.18 09:00 Одесса 25.0 25.0 756 38 Ю-З 1 21 ЧАС
28.08.18 06:00 Одесса 30.0 25.0 756 23 С 0 18 ЧАСОВ
28.08.18 03:00 Одесса 31.0 25.0 756 26 Ю-В 1 15 ЧАСОВ
28.08.18 12:00 Одесса 29.0 24.0 756 34 В 2 12 ЧАСОВ
28.08.18 09:00 Одесса 26.0 24.0 756 43 С 0 09 ЧАСОВ
28.08.18 06:00 Одесса 19.0 24.0 756 72 С-З 1 06 ЧАСОВ
28.08.18 03:00 Одесса 21.0 24.0 756 62 С 1 03 ЧАСА
27.08.18 09:00 Одесса 24.0 24.0 755 44 С 0 21 ЧАС
27.08.18 06:00 Одесса 30.0 25.0 755 26 Ю 1 18 ЧАСОВ
27.08.18 03:00 Одесса 29.0 25.0 755 43 Ю-В 1 15 ЧАСОВ
27.08.18 12:00 Одесса 27.0 24.0 755 59 В 1 12 ЧАСОВ
27.08.18 09:00 Одесса 25.0 24.0 754 68 В 4 09 ЧАСОВ
27.08.18 06:00 Одесса 24.0 24.0 753 78 В 4 06 ЧАСОВ
27.08.18 03:00 Одесса 22.0 24.0 753 74 С-В 2 03 ЧАСА
26.08.18 09:00 Одесса 24.0 24.0 753 57 З 2 21 ЧАС
26.08.18 06:00 Одесса 27.0 25.0 753 48 С 0 18 ЧАСОВ
26.08.18 03:00 Одесса 27.0 25.0 754 61 В 2 15 ЧАСОВ
26.08.18 12:00 Одесса 26.0 24.0 754 66 В 3 12 ЧАСОВ
26.08.18 09:00 Одесса 25.0 24.0 754 74 В 2 09 ЧАСОВ
Количество строк
1 2 3 4 5 6 7 8 9 10
Page 10 of 407